Colwich, United Kingdom
Current Conditions -  °F | °C
As of 3:50 AM on Sunday 25 Jan 2015 (Local Time) from EGBB Reporting Station
Few Clouds Few Clouds  
Wind Chill: 29°   Ceiling: Unl
Heat Index: 34°   Visibility: 6mi
Dew Point: 32°   Wind: 6mph
Humidity: 93%   Direction: 190°S
Pressure: 30.42"   Gusts: NA
Location:  52.79°N, 1.98°W
Report Text: EGBB 250350Z 19005KT 160V220 9999 FEW036 01/M00 Q1030
Loading
Personal Weather Stations






























Interactive Weather Map New forecast layout! Learn more

10-Day Weather Forecast

Advertisements
Track Severe Weather on mobile